sensor_id;sensor_type;location;lat;lon;timestamp;temperature;humidity
55642;DHT22;41509;53.108;6.100;2022-09-30T00:01:02;9.90;99.90
55642;DHT22;41509;53.108;6.100;2022-09-30T00:03:56;9.90;99.90
55642;DHT22;41509;53.108;6.100;2022-09-30T00:06:26;9.90;99.90
55642;DHT22;41509;53.108;6.100;2022-09-30T00:08:53;9.90;99.90
55642;DHT22;41509;53.108;6.100;2022-09-30T00:11:31;9.90;99.90
55642;DHT22;41509;53.108;6.100;2022-09-30T00:13:59;9.80;99.90
55642;DHT22;41509;53.108;6.100;2022-09-30T00:16:29;9.80;99.90
55642;DHT22;41509;53.108;6.100;2022-09-30T00:19:05;9.70;99.90
55642;DHT22;41509;53.108;6.100;2022-09-30T00:21:33;9.70;99.90
55642;DHT22;41509;53.108;6.100;2022-09-30T00:23:59;9.60;99.90
55642;DHT22;41509;53.108;6.100;2022-09-30T00:26:25;9.60;99.90
55642;DHT22;41509;53.108;6.100;2022-09-30T00:28:53;9.50;99.90
55642;DHT22;41509;53.108;6.100;2022-09-30T00:31:20;9.50;99.90
55642;DHT22;41509;53.108;6.100;2022-09-30T00:33:47;9.40;99.90
55642;DHT22;41509;53.108;6.100;2022-09-30T00:36:33;9.40;99.90
55642;DHT22;41509;53.108;6.100;2022-09-30T00:38:59;9.30;99.90
55642;DHT22;41509;53.108;6.100;2022-09-30T00:41:24;9.20;99.90
55642;DHT22;41509;53.108;6.100;2022-09-30T00:43:50;9.20;99.90
55642;DHT22;41509;53.108;6.100;2022-09-30T00:46:35;9.20;99.90
55642;DHT22;41509;53.108;6.100;2022-09-30T00:49:10;9.20;99.90
55642;DHT22;41509;53.108;6.100;2022-09-30T00:51:41;9.10;99.90
55642;DHT22;41509;53.108;6.100;2022-09-30T00:54:17;9.10;99.90
55642;DHT22;41509;53.108;6.100;2022-09-30T00:57:00;9.00;99.90
55642;DHT22;41509;53.108;6.100;2022-09-30T00:59:31;9.00;99.90
55642;DHT22;41509;53.108;6.100;2022-09-30T01:01:59;8.90;99.90
55642;DHT22;41509;53.108;6.100;2022-09-30T01:04:26;8.90;99.90
55642;DHT22;41509;53.108;6.100;2022-09-30T01:06:54;8.90;99.90
55642;DHT22;41509;53.108;6.100;2022-09-30T01:09:20;8.90;99.90
55642;DHT22;41509;53.108;6.100;2022-09-30T01:11:46;8.90;99.90
55642;DHT22;41509;53.108;6.100;2022-09-30T01:14:17;8.90;99.90
55642;DHT22;41509;53.108;6.100;2022-09-30T01:19:53;8.80;99.90
55642;DHT22;41509;53.108;6.100;2022-09-30T01:22:54;8.80;99.90
55642;DHT22;41509;53.108;6.100;2022-09-30T01:38:58;8.50;99.90
55642;DHT22;41509;53.108;6.100;2022-09-30T01:44:20;8.50;99.90
55642;DHT22;41509;53.108;6.100;2022-09-30T01:47:00;8.40;99.90
55642;DHT22;41509;53.108;6.100;2022-09-30T01:52:14;8.30;99.90
55642;DHT22;41509;53.108;6.100;2022-09-30T01:54:54;8.40;99.90
55642;DHT22;41509;53.108;6.100;2022-09-30T02:02:45;8.30;99.90
55642;DHT22;41509;53.108;6.100;2022-09-30T02:07:58;8.20;99.90
55642;DHT22;41509;53.108;6.100;2022-09-30T02:10:28;8.20;99.90
55642;DHT22;41509;53.108;6.100;2022-09-30T02:13:24;8.10;99.90
55642;DHT22;41509;53.108;6.100;2022-09-30T02:15:56;8.10;99.90
55642;DHT22;41509;53.108;6.100;2022-09-30T02:18:35;8.00;99.90
55642;DHT22;41509;53.108;6.100;2022-09-30T02:21:05;8.00;99.90
55642;DHT22;41509;53.108;6.100;2022-09-30T02:23:34;8.00;99.90
55642;DHT22;41509;53.108;6.100;2022-09-30T02:26:08;8.00;99.90
55642;DHT22;41509;53.108;6.100;2022-09-30T02:28:41;7.90;99.90
55642;DHT22;41509;53.108;6.100;2022-09-30T02:31:11;7.90;99.90
55642;DHT22;41509;53.108;6.100;2022-09-30T02:33:51;7.90;99.90
55642;DHT22;41509;53.108;6.100;2022-09-30T02:36:27;7.90;99.90
55642;DHT22;41509;53.108;6.100;2022-09-30T02:39:00;7.90;99.90
55642;DHT22;41509;53.108;6.100;2022-09-30T02:41:29;7.90;99.90
55642;DHT22;41509;53.108;6.100;2022-09-30T02:43:56;7.90;99.90
55642;DHT22;41509;53.108;6.100;2022-09-30T02:49:14;8.00;99.90
55642;DHT22;41509;53.108;6.100;2022-09-30T02:59:46;8.00;99.90
55642;DHT22;41509;53.108;6.100;2022-09-30T03:02:13;8.00;99.90
55642;DHT22;41509;53.108;6.100;2022-09-30T03:04:40;7.90;99.90
55642;DHT22;41509;53.108;6.100;2022-09-30T03:07:06;8.00;99.90
55642;DHT22;41509;53.108;6.100;2022-09-30T03:09:33;8.00;99.90
55642;DHT22;41509;53.108;6.100;2022-09-30T03:18:36;7.80;99.90
55642;DHT22;41509;53.108;6.100;2022-09-30T03:21:24;7.80;99.90
55642;DHT22;41509;53.108;6.100;2022-09-30T03:26:44;7.90;99.90
55642;DHT22;41509;53.108;6.100;2022-09-30T03:35:03;8.00;99.90
55642;DHT22;41509;53.108;6.100;2022-09-30T03:37:54;8.00;99.90
55642;DHT22;41509;53.108;6.100;2022-09-30T03:40:27;8.00;99.90
55642;DHT22;41509;53.108;6.100;2022-09-30T03:43:02;8.10;99.90
55642;DHT22;41509;53.108;6.100;2022-09-30T03:45:37;8.10;99.90
55642;DHT22;41509;53.108;6.100;2022-09-30T03:48:09;8.00;99.90
55642;DHT22;41509;53.108;6.100;2022-09-30T03:50:36;8.00;99.90
55642;DHT22;41509;53.108;6.100;2022-09-30T03:53:03;8.00;99.90
55642;DHT22;41509;53.108;6.100;2022-09-30T03:55:45;8.00;99.90
55642;DHT22;41509;53.108;6.100;2022-09-30T03:58:13;8.00;99.90
55642;DHT22;41509;53.108;6.100;2022-09-30T04:00:42;8.00;99.90
55642;DHT22;41509;53.108;6.100;2022-09-30T04:03:10;8.00;99.90
55642;DHT22;41509;53.108;6.100;2022-09-30T04:05:36;8.00;99.90
55642;DHT22;41509;53.108;6.100;2022-09-30T04:08:02;8.00;99.90
55642;DHT22;41509;53.108;6.100;2022-09-30T04:10:27;8.00;99.90
55642;DHT22;41509;53.108;6.100;2022-09-30T04:12:53;8.00;99.90
55642;DHT22;41509;53.108;6.100;2022-09-30T04:15:19;8.00;99.90
55642;DHT22;41509;53.108;6.100;2022-09-30T04:17:45;8.10;99.90
55642;DHT22;41509;53.108;6.100;2022-09-30T04:20:11;8.10;99.90
55642;DHT22;41509;53.108;6.100;2022-09-30T04:22:37;8.10;99.90
55642;DHT22;41509;53.108;6.100;2022-09-30T04:25:03;8.10;99.90
55642;DHT22;41509;53.108;6.100;2022-09-30T04:27:29;8.10;99.90
55642;DHT22;41509;53.108;6.100;2022-09-30T04:29:54;8.10;99.90
55642;DHT22;41509;53.108;6.100;2022-09-30T04:32:23;8.10;99.90
55642;DHT22;41509;53.108;6.100;2022-09-30T04:34:50;8.10;99.90
55642;DHT22;41509;53.108;6.100;2022-09-30T04:37:16;8.00;99.90
55642;DHT22;41509;53.108;6.100;2022-09-30T04:39:42;7.90;99.90
55642;DHT22;41509;53.108;6.100;2022-09-30T04:42:08;7.80;99.90
55642;DHT22;41509;53.108;6.100;2022-09-30T04:44:34;7.80;99.90
55642;DHT22;41509;53.108;6.100;2022-09-30T04:46:59;7.70;99.90
55642;DHT22;41509;53.108;6.100;2022-09-30T04:49:25;7.60;99.90
55642;DHT22;41509;53.108;6.100;2022-09-30T04:51:51;7.60;99.90
55642;DHT22;41509;53.108;6.100;2022-09-30T04:54:16;7.60;99.90
55642;DHT22;41509;53.108;6.100;2022-09-30T04:56:43;7.50;99.90
55642;DHT22;41509;53.108;6.100;2022-09-30T04:59:08;7.50;99.90
55642;DHT22;41509;53.108;6.100;2022-09-30T05:01:34;7.50;99.90
55642;DHT22;41509;53.108;6.100;2022-09-30T05:04:00;7.50;99.90
55642;DHT22;41509;53.108;6.100;2022-09-30T05:06:26;7.50;99.90
55642;DHT22;41509;53.108;6.100;2022-09-30T05:08:51;7.50;99.90
55642;DHT22;41509;53.108;6.100;2022-09-30T05:11:19;7.50;99.90
55642;DHT22;41509;53.108;6.100;2022-09-30T05:13:45;7.50;99.90
55642;DHT22;41509;53.108;6.100;2022-09-30T05:16:11;7.60;99.90
55642;DHT22;41509;53.108;6.100;2022-09-30T05:18:37;7.50;99.90
55642;DHT22;41509;53.108;6.100;2022-09-30T05:21:11;7.60;99.90
55642;DHT22;41509;53.108;6.100;2022-09-30T05:23:37;7.60;99.90
55642;DHT22;41509;53.108;6.100;2022-09-30T05:26:03;7.50;99.90
55642;DHT22;41509;53.108;6.100;2022-09-30T05:28:29;7.60;99.90
55642;DHT22;41509;53.108;6.100;2022-09-30T05:31:00;7.60;99.90
55642;DHT22;41509;53.108;6.100;2022-09-30T05:33:28;7.60;99.90
55642;DHT22;41509;53.108;6.100;2022-09-30T05:35:54;7.70;99.90
55642;DHT22;41509;53.108;6.100;2022-09-30T05:38:20;7.70;99.90
55642;DHT22;41509;53.108;6.100;2022-09-30T05:40:45;7.70;99.90
55642;DHT22;41509;53.108;6.100;2022-09-30T05:43:11;7.70;99.90
55642;DHT22;41509;53.108;6.100;2022-09-30T05:45:37;7.70;99.90
55642;DHT22;41509;53.108;6.100;2022-09-30T05:48:03;7.70;99.90
55642;DHT22;41509;53.108;6.100;2022-09-30T05:50:29;7.70;99.90
55642;DHT22;41509;53.108;6.100;2022-09-30T05:52:55;7.80;99.90
55642;DHT22;41509;53.108;6.100;2022-09-30T05:55:22;7.90;99.90
55642;DHT22;41509;53.108;6.100;2022-09-30T05:57:49;7.90;99.90
55642;DHT22;41509;53.108;6.100;2022-09-30T06:00:15;8.00;99.90
55642;DHT22;41509;53.108;6.100;2022-09-30T06:02:41;8.00;99.90
55642;DHT22;41509;53.108;6.100;2022-09-30T06:05:09;8.00;99.90
55642;DHT22;41509;53.108;6.100;2022-09-30T06:07:35;8.00;99.90
55642;DHT22;41509;53.108;6.100;2022-09-30T06:10:04;8.00;99.90
55642;DHT22;41509;53.108;6.100;2022-09-30T06:12:30;8.00;99.90
55642;DHT22;41509;53.108;6.100;2022-09-30T06:14:55;8.00;99.90
55642;DHT22;41509;53.108;6.100;2022-09-30T06:17:22;8.00;99.90
55642;DHT22;41509;53.108;6.100;2022-09-30T06:19:48;8.10;99.90
55642;DHT22;41509;53.108;6.100;2022-09-30T06:22:16;8.10;99.90
55642;DHT22;41509;53.108;6.100;2022-09-30T06:24:43;8.10;99.90
55642;DHT22;41509;53.108;6.100;2022-09-30T06:27:08;8.10;99.90
55642;DHT22;41509;53.108;6.100;2022-09-30T06:29:36;8.10;99.90
55642;DHT22;41509;53.108;6.100;2022-09-30T06:32:02;8.20;99.90
55642;DHT22;41509;53.108;6.100;2022-09-30T06:34:28;8.20;99.90
55642;DHT22;41509;53.108;6.100;2022-09-30T06:36:54;8.30;99.90
55642;DHT22;41509;53.108;6.100;2022-09-30T06:39:19;8.30;99.90
55642;DHT22;41509;53.108;6.100;2022-09-30T06:41:45;8.30;99.90
55642;DHT22;41509;53.108;6.100;2022-09-30T06:44:11;8.30;99.90
55642;DHT22;41509;53.108;6.100;2022-09-30T06:46:37;8.40;99.90
55642;DHT22;41509;53.108;6.100;2022-09-30T06:49:03;8.50;99.90
55642;DHT22;41509;53.108;6.100;2022-09-30T06:51:30;8.50;99.90
55642;DHT22;41509;53.108;6.100;2022-09-30T06:54:00;8.60;99.90
55642;DHT22;41509;53.108;6.100;2022-09-30T06:56:26;8.60;99.90
55642;DHT22;41509;53.108;6.100;2022-09-30T06:58:52;8.70;99.90
55642;DHT22;41509;53.108;6.100;2022-09-30T07:01:17;8.70;99.90
55642;DHT22;41509;53.108;6.100;2022-09-30T07:03:45;8.80;99.90
55642;DHT22;41509;53.108;6.100;2022-09-30T07:06:13;8.80;99.90
55642;DHT22;41509;53.108;6.100;2022-09-30T07:08:39;8.90;99.90
55642;DHT22;41509;53.108;6.100;2022-09-30T07:11:10;8.90;99.90
55642;DHT22;41509;53.108;6.100;2022-09-30T07:13:43;9.00;99.90
55642;DHT22;41509;53.108;6.100;2022-09-30T07:16:09;9.00;99.90
55642;DHT22;41509;53.108;6.100;2022-09-30T07:18:37;9.10;99.90
55642;DHT22;41509;53.108;6.100;2022-09-30T07:21:03;9.10;99.90
55642;DHT22;41509;53.108;6.100;2022-09-30T07:23:28;9.20;99.90
55642;DHT22;41509;53.108;6.100;2022-09-30T07:25:59;9.20;99.90
55642;DHT22;41509;53.108;6.100;2022-09-30T07:28:30;9.30;99.90
55642;DHT22;41509;53.108;6.100;2022-09-30T07:30:59;9.40;99.90
55642;DHT22;41509;53.108;6.100;2022-09-30T07:33:26;9.40;99.90
55642;DHT22;41509;53.108;6.100;2022-09-30T07:35:56;9.50;99.90
55642;DHT22;41509;53.108;6.100;2022-09-30T07:38:24;9.50;99.90
55642;DHT22;41509;53.108;6.100;2022-09-30T07:40:56;9.60;99.90
55642;DHT22;41509;53.108;6.100;2022-09-30T07:43:24;9.70;99.90
55642;DHT22;41509;53.108;6.100;2022-09-30T07:45:50;9.80;99.90
55642;DHT22;41509;53.108;6.100;2022-09-30T07:48:16;9.90;99.90
55642;DHT22;41509;53.108;6.100;2022-09-30T07:51:01;9.90;99.90
55642;DHT22;41509;53.108;6.100;2022-09-30T07:53:26;9.90;99.90
55642;DHT22;41509;53.108;6.100;2022-09-30T07:55:52;10.00;99.90
55642;DHT22;41509;53.108;6.100;2022-09-30T07:58:17;10.00;99.90
55642;DHT22;41509;53.108;6.100;2022-09-30T08:00:46;10.00;99.90
55642;DHT22;41509;53.108;6.100;2022-09-30T08:03:13;10.10;99.90
55642;DHT22;41509;53.108;6.100;2022-09-30T08:05:40;10.20;99.90
55642;DHT22;41509;53.108;6.100;2022-09-30T08:08:06;10.20;99.90
55642;DHT22;41509;53.108;6.100;2022-09-30T08:10:35;10.30;99.90
55642;DHT22;41509;53.108;6.100;2022-09-30T08:13:01;10.30;99.90
55642;DHT22;41509;53.108;6.100;2022-09-30T08:15:27;10.40;99.90
55642;DHT22;41509;53.108;6.100;2022-09-30T08:17:52;10.40;99.90
55642;DHT22;41509;53.108;6.100;2022-09-30T08:20:18;10.50;99.90
55642;DHT22;41509;53.108;6.100;2022-09-30T08:22:43;10.50;99.90
55642;DHT22;41509;53.108;6.100;2022-09-30T08:25:09;10.50;99.90
55642;DHT22;41509;53.108;6.100;2022-09-30T08:27:34;10.60;99.90
55642;DHT22;41509;53.108;6.100;2022-09-30T08:30:00;10.60;99.90
55642;DHT22;41509;53.108;6.100;2022-09-30T08:32:29;10.70;99.90
55642;DHT22;41509;53.108;6.100;2022-09-30T08:34:55;10.80;99.90
55642;DHT22;41509;53.108;6.100;2022-09-30T08:37:21;10.90;99.90
55642;DHT22;41509;53.108;6.100;2022-09-30T08:39:46;10.90;99.90
55642;DHT22;41509;53.108;6.100;2022-09-30T08:42:16;11.00;99.90
55642;DHT22;41509;53.108;6.100;2022-09-30T08:44:46;11.00;99.90
55642;DHT22;41509;53.108;6.100;2022-09-30T08:47:44;11.10;99.90
55642;DHT22;41509;53.108;6.100;2022-09-30T08:52:49;11.20;99.90
55642;DHT22;41509;53.108;6.100;2022-09-30T08:55:24;11.30;99.90
55642;DHT22;41509;53.108;6.100;2022-09-30T08:57:52;11.30;99.90
55642;DHT22;41509;53.108;6.100;2022-09-30T09:00:20;11.40;99.90
55642;DHT22;41509;53.108;6.100;2022-09-30T09:02:50;11.50;99.90
55642;DHT22;41509;53.108;6.100;2022-09-30T09:08:15;11.70;99.90
55642;DHT22;41509;53.108;6.100;2022-09-30T09:13:48;11.80;99.90
55642;DHT22;41509;53.108;6.100;2022-09-30T09:16:29;11.90;99.90
55642;DHT22;41509;53.108;6.100;2022-09-30T09:19:09;12.00;99.90
55642;DHT22;41509;53.108;6.100;2022-09-30T09:24:35;12.30;99.90
55642;DHT22;41509;53.108;6.100;2022-09-30T09:27:15;12.30;99.90
55642;DHT22;41509;53.108;6.100;2022-09-30T09:32:32;12.40;99.90
55642;DHT22;41509;53.108;6.100;2022-09-30T09:35:00;12.50;99.90
55642;DHT22;41509;53.108;6.100;2022-09-30T09:37:43;12.60;99.90
55642;DHT22;41509;53.108;6.100;2022-09-30T09:43:25;12.80;99.90
55642;DHT22;41509;53.108;6.100;2022-09-30T09:48:42;13.10;99.90
55642;DHT22;41509;53.108;6.100;2022-09-30T09:51:23;13.20;99.90
55642;DHT22;41509;53.108;6.100;2022-09-30T09:53:56;13.30;99.90
55642;DHT22;41509;53.108;6.100;2022-09-30T09:56:28;13.40;99.90
55642;DHT22;41509;53.108;6.100;2022-09-30T09:59:14;13.60;99.90
55642;DHT22;41509;53.108;6.100;2022-09-30T10:01:49;13.70;99.90
55642;DHT22;41509;53.108;6.100;2022-09-30T10:04:24;13.90;99.90
55642;DHT22;41509;53.108;6.100;2022-09-30T10:06:57;14.00;99.90
55642;DHT22;41509;53.108;6.100;2022-09-30T10:09:38;14.20;99.90
55642;DHT22;41509;53.108;6.100;2022-09-30T10:14:57;14.40;99.90
55642;DHT22;41509;53.108;6.100;2022-09-30T10:17:34;14.50;99.90
55642;DHT22;41509;53.108;6.100;2022-09-30T10:20:33;14.60;99.90
55642;DHT22;41509;53.108;6.100;2022-09-30T10:23:19;14.70;99.90
55642;DHT22;41509;53.108;6.100;2022-09-30T10:26:18;14.80;99.90
55642;DHT22;41509;53.108;6.100;2022-09-30T10:28:55;14.80;99.90
55642;DHT22;41509;53.108;6.100;2022-09-30T10:31:27;15.00;99.90
55642;DHT22;41509;53.108;6.100;2022-09-30T10:36:45;15.20;99.90
55642;DHT22;41509;53.108;6.100;2022-09-30T10:41:48;15.40;99.90
55642;DHT22;41509;53.108;6.100;2022-09-30T10:44:17;15.40;99.90
55642;DHT22;41509;53.108;6.100;2022-09-30T10:46:45;15.50;99.90
55642;DHT22;41509;53.108;6.100;2022-09-30T10:49:38;15.50;99.90
55642;DHT22;41509;53.108;6.100;2022-09-30T10:52:18;15.60;99.90
55642;DHT22;41509;53.108;6.100;2022-09-30T10:54:53;15.60;99.90
55642;DHT22;41509;53.108;6.100;2022-09-30T11:00:05;15.60;99.90
55642;DHT22;41509;53.108;6.100;2022-09-30T11:02:41;15.70;99.90
55642;DHT22;41509;53.108;6.100;2022-09-30T11:08:23;16.00;99.90
55642;DHT22;41509;53.108;6.100;2022-09-30T11:18:44;16.00;99.90
55642;DHT22;41509;53.108;6.100;2022-09-30T11:21:17;15.90;99.90
55642;DHT22;41509;53.108;6.100;2022-09-30T11:23:56;15.90;99.90
55642;DHT22;41509;53.108;6.100;2022-09-30T11:45:08;16.10;99.90
55642;DHT22;41509;53.108;6.100;2022-09-30T11:47:51;16.10;99.90
55642;DHT22;41509;53.108;6.100;2022-09-30T11:50:32;15.90;99.90
55642;DHT22;41509;53.108;6.100;2022-09-30T11:58:48;16.30;99.90
55642;DHT22;41509;53.108;6.100;2022-09-30T12:01:41;16.50;99.90
55642;DHT22;41509;53.108;6.100;2022-09-30T12:09:36;16.40;99.90
55642;DHT22;41509;53.108;6.100;2022-09-30T12:12:09;16.50;99.90
55642;DHT22;41509;53.108;6.100;2022-09-30T12:14:43;16.60;99.90
55642;DHT22;41509;53.108;6.100;2022-09-30T12:17:41;16.60;99.90
55642;DHT22;41509;53.108;6.100;2022-09-30T12:20:21;16.60;99.90
55642;DHT22;41509;53.108;6.100;2022-09-30T12:22:56;16.60;99.90
55642;DHT22;41509;53.108;6.100;2022-09-30T12:25:39;16.60;99.90
55642;DHT22;41509;53.108;6.100;2022-09-30T12:28:26;16.50;99.90
55642;DHT22;41509;53.108;6.100;2022-09-30T12:49:59;16.50;99.90
55642;DHT22;41509;53.108;6.100;2022-09-30T12:52:31;16.40;99.90
55642;DHT22;41509;53.108;6.100;2022-09-30T12:57:40;16.40;99.90
55642;DHT22;41509;53.108;6.100;2022-09-30T13:00:15;16.40;99.90
55642;DHT22;41509;53.108;6.100;2022-09-30T13:02:53;16.30;99.90
55642;DHT22;41509;53.108;6.100;2022-09-30T13:15:52;16.50;99.90
55642;DHT22;41509;53.108;6.100;2022-09-30T13:21:01;16.50;99.90
55642;DHT22;41509;53.108;6.100;2022-09-30T13:23:53;16.70;99.90
55642;DHT22;41509;53.108;6.100;2022-09-30T13:29:34;17.10;99.90
55642;DHT22;41509;53.108;6.100;2022-09-30T13:34:27;16.90;99.90
55642;DHT22;41509;53.108;6.100;2022-09-30T13:36:59;17.00;99.90
55642;DHT22;41509;53.108;6.100;2022-09-30T13:39:45;17.10;99.90
55642;DHT22;41509;53.108;6.100;2022-09-30T13:42:24;17.20;99.90
55642;DHT22;41509;53.108;6.100;2022-09-30T13:50:52;17.00;99.90
55642;DHT22;41509;53.108;6.100;2022-09-30T13:53:23;16.90;99.90
55642;DHT22;41509;53.108;6.100;2022-09-30T13:55:51;17.00;99.90
55642;DHT22;41509;53.108;6.100;2022-09-30T13:58:48;17.20;99.90
55642;DHT22;41509;53.108;6.100;2022-09-30T14:09:49;17.30;99.90
55642;DHT22;41509;53.108;6.100;2022-09-30T14:15:10;17.30;99.90
55642;DHT22;41509;53.108;6.100;2022-09-30T14:23:20;17.30;99.90
55642;DHT22;41509;53.108;6.100;2022-09-30T14:26:00;17.30;99.90
55642;DHT22;41509;53.108;6.100;2022-09-30T14:29:40;17.30;99.90
55642;DHT22;41509;53.108;6.100;2022-09-30T14:31:45;17.20;99.90
55642;DHT22;41509;53.108;6.100;2022-09-30T14:34:15;17.10;99.90
55642;DHT22;41509;53.108;6.100;2022-09-30T14:36:43;17.10;99.90
55642;DHT22;41509;53.108;6.100;2022-09-30T14:39:17;17.00;99.90
55642;DHT22;41509;53.108;6.100;2022-09-30T14:41:50;17.10;99.90
55642;DHT22;41509;53.108;6.100;2022-09-30T14:44:17;17.20;99.90
55642;DHT22;41509;53.108;6.100;2022-09-30T14:46:46;17.10;99.90
55642;DHT22;41509;53.108;6.100;2022-09-30T14:49:15;17.10;99.90
55642;DHT22;41509;53.108;6.100;2022-09-30T14:51:47;17.10;99.90
55642;DHT22;41509;53.108;6.100;2022-09-30T14:54:19;16.90;99.90
55642;DHT22;41509;53.108;6.100;2022-09-30T14:56:46;16.90;99.90
55642;DHT22;41509;53.108;6.100;2022-09-30T14:59:23;16.80;99.90
55642;DHT22;41509;53.108;6.100;2022-09-30T15:02:08;16.70;99.90
55642;DHT22;41509;53.108;6.100;2022-09-30T15:04:59;16.50;99.90
55642;DHT22;41509;53.108;6.100;2022-09-30T15:07:29;16.50;99.90
55642;DHT22;41509;53.108;6.100;2022-09-30T15:10:00;16.50;99.90
55642;DHT22;41509;53.108;6.100;2022-09-30T15:12:26;16.40;99.90
55642;DHT22;41509;53.108;6.100;2022-09-30T15:14:58;16.30;99.90
55642;DHT22;41509;53.108;6.100;2022-09-30T15:17:29;16.30;99.90
55642;DHT22;41509;53.108;6.100;2022-09-30T15:19:57;16.20;99.90
55642;DHT22;41509;53.108;6.100;2022-09-30T15:22:26;16.20;99.90
55642;DHT22;41509;53.108;6.100;2022-09-30T15:24:56;16.20;99.90
55642;DHT22;41509;53.108;6.100;2022-09-30T15:27:32;16.20;99.90
55642;DHT22;41509;53.108;6.100;2022-09-30T15:30:22;16.10;99.90
55642;DHT22;41509;53.108;6.100;2022-09-30T15:33:01;16.10;99.90
55642;DHT22;41509;53.108;6.100;2022-09-30T15:35:30;16.00;99.90
55642;DHT22;41509;53.108;6.100;2022-09-30T15:38:14;16.10;99.90
55642;DHT22;41509;53.108;6.100;2022-09-30T15:40:51;16.10;99.90
55642;DHT22;41509;53.108;6.100;2022-09-30T15:49:33;16.00;99.90
55642;DHT22;41509;53.108;6.100;2022-09-30T15:52:36;16.00;99.90
55642;DHT22;41509;53.108;6.100;2022-09-30T15:55:49;15.90;99.90
55642;DHT22;41509;53.108;6.100;2022-09-30T15:58:36;15.90;99.90
55642;DHT22;41509;53.108;6.100;2022-09-30T16:03:57;15.80;99.90
55642;DHT22;41509;53.108;6.100;2022-09-30T16:06:28;15.70;99.90
55642;DHT22;41509;53.108;6.100;2022-09-30T16:11:56;15.60;99.90
55642;DHT22;41509;53.108;6.100;2022-09-30T16:14:58;15.70;99.90
55642;DHT22;41509;53.108;6.100;2022-09-30T16:17:30;15.60;99.90
55642;DHT22;41509;53.108;6.100;2022-09-30T16:20:21;15.60;99.90
55642;DHT22;41509;53.108;6.100;2022-09-30T16:22:55;15.60;99.90
55642;DHT22;41509;53.108;6.100;2022-09-30T16:25:35;15.50;99.90
55642;DHT22;41509;53.108;6.100;2022-09-30T16:28:32;15.50;99.90
55642;DHT22;41509;53.108;6.100;2022-09-30T16:31:01;15.50;99.90
55642;DHT22;41509;53.108;6.100;2022-09-30T16:37:14;15.40;99.90
55642;DHT22;41509;53.108;6.100;2022-09-30T16:39:55;15.40;99.90
55642;DHT22;41509;53.108;6.100;2022-09-30T16:42:23;15.30;99.90
55642;DHT22;41509;53.108;6.100;2022-09-30T16:45:01;15.30;99.90
55642;DHT22;41509;53.108;6.100;2022-09-30T16:47:43;15.30;99.90
55642;DHT22;41509;53.108;6.100;2022-09-30T16:50:39;15.20;99.90
55642;DHT22;41509;53.108;6.100;2022-09-30T16:53:11;15.20;99.90
55642;DHT22;41509;53.108;6.100;2022-09-30T16:55:43;15.20;99.90
55642;DHT22;41509;53.108;6.100;2022-09-30T16:58:31;15.10;99.90
55642;DHT22;41509;53.108;6.100;2022-09-30T17:01:03;15.10;99.90
55642;DHT22;41509;53.108;6.100;2022-09-30T17:03:39;15.00;99.90
55642;DHT22;41509;53.108;6.100;2022-09-30T17:06:11;15.00;99.90
55642;DHT22;41509;53.108;6.100;2022-09-30T17:08:50;14.90;99.90
55642;DHT22;41509;53.108;6.100;2022-09-30T17:11:18;15.00;99.90
55642;DHT22;41509;53.108;6.100;2022-09-30T17:13:47;14.80;99.90
55642;DHT22;41509;53.108;6.100;2022-09-30T17:16:16;14.80;99.90
55642;DHT22;41509;53.108;6.100;2022-09-30T17:18:48;14.80;99.90
55642;DHT22;41509;53.108;6.100;2022-09-30T17:21:24;14.70;99.90
55642;DHT22;41509;53.108;6.100;2022-09-30T17:23:58;14.70;99.90
55642;DHT22;41509;53.108;6.100;2022-09-30T17:26:51;14.60;99.90
55642;DHT22;41509;53.108;6.100;2022-09-30T17:33:53;14.50;99.90
55642;DHT22;41509;53.108;6.100;2022-09-30T17:36:35;14.50;99.90
55642;DHT22;41509;53.108;6.100;2022-09-30T17:46:12;14.20;99.90
55642;DHT22;41509;53.108;6.100;2022-09-30T17:52:40;14.20;99.90
55642;DHT22;41509;53.108;6.100;2022-09-30T17:55:41;14.10;99.90
55642;DHT22;41509;53.108;6.100;2022-09-30T18:02:46;14.10;99.90
55642;DHT22;41509;53.108;6.100;2022-09-30T18:09:37;13.90;99.90
55642;DHT22;41509;53.108;6.100;2022-09-30T18:12:38;13.90;99.90
55642;DHT22;41509;53.108;6.100;2022-09-30T18:31:42;13.60;99.90
55642;DHT22;41509;53.108;6.100;2022-09-30T18:34:16;13.60;99.90
55642;DHT22;41509;53.108;6.100;2022-09-30T18:36:54;13.60;99.90
55642;DHT22;41509;53.108;6.100;2022-09-30T18:39:20;13.60;99.90
55642;DHT22;41509;53.108;6.100;2022-09-30T18:51:05;13.50;99.90
55642;DHT22;41509;53.108;6.100;2022-09-30T18:54:30;13.60;99.90
55642;DHT22;41509;53.108;6.100;2022-09-30T18:57:20;13.50;99.90
55642;DHT22;41509;53.108;6.100;2022-09-30T19:22:28;13.50;99.90
55642;DHT22;41509;53.108;6.100;2022-09-30T19:51:39;13.60;99.90
55642;DHT22;41509;53.108;6.100;2022-09-30T19:54:05;13.60;99.90
55642;DHT22;41509;53.108;6.100;2022-09-30T19:56:31;13.60;99.90
55642;DHT22;41509;53.108;6.100;2022-09-30T19:59:02;13.60;99.90
55642;DHT22;41509;53.108;6.100;2022-09-30T20:01:29;13.60;99.90
55642;DHT22;41509;53.108;6.100;2022-09-30T20:03:58;13.60;99.90
55642;DHT22;41509;53.108;6.100;2022-09-30T20:06:27;13.70;99.90
55642;DHT22;41509;53.108;6.100;2022-09-30T20:08:54;13.60;99.90
55642;DHT22;41509;53.108;6.100;2022-09-30T20:11:30;13.60;99.90
55642;DHT22;41509;53.108;6.100;2022-09-30T20:14:01;13.70;99.90
55642;DHT22;41509;53.108;6.100;2022-09-30T20:16:47;13.60;99.90
55642;DHT22;41509;53.108;6.100;2022-09-30T20:19:15;13.60;99.90
55642;DHT22;41509;53.108;6.100;2022-09-30T20:21:41;13.60;99.90
55642;DHT22;41509;53.108;6.100;2022-09-30T20:24:12;13.60;99.90
55642;DHT22;41509;53.108;6.100;2022-09-30T20:26:40;13.60;99.90
55642;DHT22;41509;53.108;6.100;2022-09-30T20:29:07;13.60;99.90
55642;DHT22;41509;53.108;6.100;2022-09-30T20:31:40;13.60;99.90
55642;DHT22;41509;53.108;6.100;2022-09-30T20:34:08;13.60;99.90
55642;DHT22;41509;53.108;6.100;2022-09-30T20:36:34;13.60;99.90
55642;DHT22;41509;53.108;6.100;2022-09-30T20:39:01;13.60;99.90
55642;DHT22;41509;53.108;6.100;2022-09-30T20:41:33;13.60;99.90
55642;DHT22;41509;53.108;6.100;2022-09-30T20:44:05;13.60;99.90
55642;DHT22;41509;53.108;6.100;2022-09-30T20:46:33;13.60;99.90
55642;DHT22;41509;53.108;6.100;2022-09-30T20:49:00;13.60;99.90
55642;DHT22;41509;53.108;6.100;2022-09-30T20:51:29;13.60;99.90
55642;DHT22;41509;53.108;6.100;2022-09-30T20:53:56;13.60;99.90
55642;DHT22;41509;53.108;6.100;2022-09-30T20:56:25;13.60;99.90
55642;DHT22;41509;53.108;6.100;2022-09-30T20:58:52;13.60;99.90
55642;DHT22;41509;53.108;6.100;2022-09-30T21:01:20;13.50;99.90
55642;DHT22;41509;53.108;6.100;2022-09-30T21:03:49;13.60;99.90
55642;DHT22;41509;53.108;6.100;2022-09-30T21:06:27;13.60;99.90
55642;DHT22;41509;53.108;6.100;2022-09-30T21:08:54;13.60;99.90
55642;DHT22;41509;53.108;6.100;2022-09-30T21:11:22;13.50;99.90
55642;DHT22;41509;53.108;6.100;2022-09-30T21:13:50;13.50;99.90
55642;DHT22;41509;53.108;6.100;2022-09-30T21:16:19;13.60;99.90